Time;durP1;ratioP1;P1;durP2;ratioP2;P2;SDS_P1;SDS_P2;PMS_P1;PMS_P2;Temp;Humidity;BMP_temperature;BMP_pressure;BME280_temperature;BME280_humidity;BME280_pressure;Samples;Min_cycle;Max_cycle;Signal;HPM_P1;HPM_P2
2020/12/15 00:00:43;;;;;;;85.60;39.45;;;;;;;;;;5077485;28;20040;-94
2020/12/15 00:03:09;;;;;;;85.68;41.78;;;;;;;;;;5077442;28;20407;-95
2020/12/15 00:05:35;;;;;;;79.13;36.72;;;;;;;;;;5077301;28;20025;-93
2020/12/15 00:08:01;;;;;;;73.78;36.17;;;;;;;;;;5077346;28;20025;-93
2020/12/15 00:10:27;;;;;;;66.65;32.72;;;;;;;;;;5077641;28;20028;-93
2020/12/15 00:12:53;;;;;;;63.40;31.77;;;;;;;;;;5077626;28;20042;-93
2020/12/15 00:15:19;;;;;;;66.93;33.35;;;;;;;;;;5077668;28;20032;-94
2020/12/15 00:17:45;;;;;;;55.72;30.35;;;;;;;;;;5077141;28;20029;-93
2020/12/15 00:20:33;;;;;;;58.33;29.10;;;;;;;;;;5077724;28;20306;-92
2020/12/15 00:23:00;;;;;;;62.85;31.77;;;;;;;;;;5059836;28;20167;-92
2020/12/15 00:25:26;;;;;;;57.22;27.80;;;;;;;;;;5059550;28;20052;-95
2020/12/15 00:27:52;;;;;;;56.65;29.08;;;;;;;;;;5077627;28;20017;-94
2020/12/15 00:30:18;;;;;;;57.72;27.70;;;;;;;;;;5076943;28;20123;-94
2020/12/15 00:32:48;;;;;;;53.08;26.55;;;;;;;;;;5059460;28;20016;-95
2020/12/15 00:35:14;;;;;;;55.92;25.70;;;;;;;;;;5077048;28;20079;-93
2020/12/15 00:37:40;;;;;;;55.85;25.63;;;;;;;;;;5076946;28;20071;-94
2020/12/15 00:40:06;;;;;;;61.60;27.85;;;;;;;;;;5077071;28;20449;-95
2020/12/15 00:42:32;;;;;;;56.75;28.77;;;;;;;;;;5059567;28;20033;-95
2020/12/15 00:44:58;;;;;;;55.35;29.20;;;;;;;;;;5077354;28;20031;-94
2020/12/15 00:47:24;;;;;;;51.80;28.35;;;;;;;;;;5076862;28;20056;-94
2020/12/15 00:49:50;;;;;;;55.42;27.35;;;;;;;;;;5076973;28;20415;-94
2020/12/15 00:52:17;;;;;;;56.53;27.58;;;;;;;;;;5076972;28;20088;-93
2020/12/15 00:54:43;;;;;;;63.53;28.45;;;;;;;;;;5077178;28;20100;-94
2020/12/15 00:57:09;;;;;;;62.97;30.00;;;;;;;;;;5077114;28;20028;-94
2020/12/15 00:59:35;;;;;;;64.97;28.58;;;;;;;;;;5059037;28;20029;-94
2020/12/15 01:02:02;;;;;;;67.85;35.38;;;;;;;;;;5060388;28;20037;-92
2020/12/15 01:04:28;;;;;;;69.28;31.67;;;;;;;;;;5080483;28;20026;-93
2020/12/15 01:06:54;;;;;;;63.38;30.45;;;;;;;;;;5062634;28;20032;-92
2020/12/15 01:09:21;;;;;;;67.13;30.45;;;;;;;;;;5080283;28;20032;-93
2020/12/15 01:11:47;;;;;;;65.72;30.25;;;;;;;;;;5080467;28;20464;-93
2020/12/15 01:14:13;;;;;;;70.55;32.15;;;;;;;;;;5062484;28;20422;-94
2020/12/15 01:16:40;;;;;;;76.43;34.63;;;;;;;;;;5080035;28;20433;-94
2020/12/15 01:19:06;;;;;;;81.05;37.45;;;;;;;;;;5080554;28;20021;-92
2020/12/15 01:21:32;;;;;;;78.25;35.40;;;;;;;;;;5062658;28;20036;-94
2020/12/15 01:23:58;;;;;;;73.18;33.28;;;;;;;;;;5062674;28;20055;-93
2020/12/15 01:26:24;;;;;;;76.75;35.00;;;;;;;;;;5080245;28;20029;-92
2020/12/15 01:28:51;;;;;;;80.22;35.88;;;;;;;;;;5080504;28;20062;-93
2020/12/15 01:31:23;;;;;;;83.60;35.30;;;;;;;;;;5079841;28;20035;-94
2020/12/15 01:33:49;;;;;;;85.60;33.22;;;;;;;;;;5062350;28;20056;-93
2020/12/15 01:36:15;;;;;;;84.85;38.00;;;;;;;;;;5079689;28;20028;-93
2020/12/15 01:38:41;;;;;;;74.43;33.20;;;;;;;;;;5079928;28;20453;-93
2020/12/15 01:41:07;;;;;;;72.28;30.23;;;;;;;;;;5079859;28;20028;-92
2020/12/15 01:43:34;;;;;;;72.85;33.15;;;;;;;;;;5062085;28;20024;-93
2020/12/15 01:46:00;;;;;;;71.72;30.17;;;;;;;;;;5079954;28;20029;-93
2020/12/15 01:48:26;;;;;;;71.47;31.67;;;;;;;;;;5079617;28;20080;-94
2020/12/15 01:50:52;;;;;;;62.53;27.35;;;;;;;;;;5061911;28;20067;-93
2020/12/15 01:53:18;;;;;;;67.93;26.45;;;;;;;;;;5079970;28;20021;-93
2020/12/15 01:55:45;;;;;;;64.50;29.75;;;;;;;;;;5079927;28;20029;-93
2020/12/15 01:58:11;;;;;;;61.50;26.02;;;;;;;;;;5079633;28;20418;-91
2020/12/15 02:00:37;;;;;;;56.38;24.33;;;;;;;;;;5079456;28;20115;-92
2020/12/15 02:03:03;;;;;;;68.40;28.95;;;;;;;;;;5079715;28;20020;-92
2020/12/15 02:05:30;;;;;;;58.00;26.35;;;;;;;;;;5079332;28;20031;-92
2020/12/15 02:07:56;;;;;;;66.65;28.98;;;;;;;;;;5079674;28;20025;-92
2020/12/15 02:10:22;;;;;;;64.03;27.25;;;;;;;;;;5079624;28;20024;-92
2020/12/15 02:12:49;;;;;;;58.22;26.23;;;;;;;;;;5061821;28;20024;-93
2020/12/15 02:15:15;;;;;;;60.92;26.25;;;;;;;;;;5079440;28;20028;-92
2020/12/15 02:17:41;;;;;;;61.47;24.98;;;;;;;;;;5079194;28;20037;-92
2020/12/15 02:20:09;;;;;;;61.30;25.52;;;;;;;;;;5061084;28;20036;-92
2020/12/15 02:22:35;;;;;;;77.15;34.47;;;;;;;;;;5061866;28;20021;-91
2020/12/15 02:25:02;;;;;;;77.72;34.47;;;;;;;;;;5079270;28;20078;-92
2020/12/15 02:27:28;;;;;;;64.72;27.52;;;;;;;;;;5061063;28;20442;-91
2020/12/15 02:29:54;;;;;;;73.18;26.77;;;;;;;;;;5061319;28;20456;-90
2020/12/15 02:32:20;;;;;;;72.00;31.02;;;;;;;;;;5078979;28;20028;-92
2020/12/15 02:34:46;;;;;;;69.50;26.80;;;;;;;;;;5079009;28;20055;-92
2020/12/15 02:37:13;;;;;;;75.82;26.75;;;;;;;;;;5061136;28;20123;-91
2020/12/15 02:39:39;;;;;;;74.15;28.45;;;;;;;;;;5061123;28;20024;-92
2020/12/15 02:42:05;;;;;;;76.78;25.98;;;;;;;;;;5078913;28;20040;-92
2020/12/15 02:44:31;;;;;;;75.97;27.23;;;;;;;;;;5078491;28;20414;-93
2020/12/15 02:46:57;;;;;;;64.97;25.55;;;;;;;;;;5078532;28;20094;-92
2020/12/15 02:49:23;;;;;;;72.55;27.58;;;;;;;;;;5060883;28;20020;-92
2020/12/15 02:51:50;;;;;;;79.00;31.25;;;;;;;;;;5078437;28;20024;-91
2020/12/15 02:54:19;;;;;;;87.22;33.42;;;;;;;;;;5078418;28;20107;-92
2020/12/15 02:56:45;;;;;;;71.57;29.33;;;;;;;;;;5078525;28;20103;-92
2020/12/15 02:59:11;;;;;;;66.18;27.35;;;;;;;;;;5078758;28;20073;-92
2020/12/15 03:01:41;;;;;;;62.20;24.02;;;;;;;;;;5078548;28;20111;-92
2020/12/15 03:04:07;;;;;;;66.82;26.00;;;;;;;;;;5078201;28;20457;-92
2020/12/15 03:06:33;;;;;;;75.07;28.60;;;;;;;;;;5078719;28;20025;-92
2020/12/15 03:09:00;;;;;;;63.63;25.25;;;;;;;;;;5077808;28;20151;-92
2020/12/15 03:11:26;;;;;;;76.70;27.13;;;;;;;;;;5078352;28;20029;-91
2020/12/15 03:13:53;;;;;;;78.25;29.40;;;;;;;;;;5078390;28;20029;-91
2020/12/15 03:16:20;;;;;;;70.00;26.38;;;;;;;;;;5078231;28;20070;-92
2020/12/15 03:18:46;;;;;;;65.82;25.67;;;;;;;;;;5060507;28;20303;-91
2020/12/15 03:24:15;;;;;;;84.65;36.15;;;;;;;;;;5077794;28;20036;-93
2020/12/15 03:26:41;;;;;;;74.22;27.98;;;;;;;;;;5078132;28;20044;-92
2020/12/15 03:29:07;;;;;;;65.15;24.85;;;;;;;;;;5078157;28;20033;-92
2020/12/15 03:31:34;;;;;;;64.45;24.63;;;;;;;;;;5077868;28;20020;-93
2020/12/15 03:34:00;;;;;;;66.10;25.52;;;;;;;;;;5078028;28;20025;-92
2020/12/15 03:39:48;;;;;;;66.35;25.13;;;;;;;;;;5077996;28;20046;-92
2020/12/15 03:42:14;;;;;;;60.55;24.08;;;;;;;;;;5077692;28;20017;-92
2020/12/15 03:44:41;;;;;;;70.85;25.52;;;;;;;;;;5077716;28;20115;-93
2020/12/15 03:47:07;;;;;;;61.63;23.83;;;;;;;;;;5077451;28;20485;-94
2020/12/15 03:49:33;;;;;;;64.88;25.30;;;;;;;;;;5077959;28;20349;-92
2020/12/15 03:51:59;;;;;;;61.30;24.30;;;;;;;;;;5077828;28;20025;-94
2020/12/15 03:54:25;;;;;;;63.70;23.45;;;;;;;;;;5077895;28;20025;-94
2020/12/15 03:56:51;;;;;;;66.13;25.60;;;;;;;;;;5077788;28;20032;-91
2020/12/15 03:59:17;;;;;;;62.67;23.33;;;;;;;;;;5059576;28;20032;-92
2020/12/15 04:01:43;;;;;;;61.38;26.00;;;;;;;;;;5077642;28;20027;-91
2020/12/15 04:04:09;;;;;;;64.70;26.30;;;;;;;;;;5059348;28;20032;-91
2020/12/15 04:06:35;;;;;;;62.63;25.88;;;;;;;;;;5077172;28;20020;-92
2020/12/15 04:09:01;;;;;;;78.03;33.60;;;;;;;;;;5077616;28;20025;-92
2020/12/15 04:11:27;;;;;;;106.55;44.83;;;;;;;;;;5077646;28;20021;-92
2020/12/15 04:13:53;;;;;;;61.10;25.42;;;;;;;;;;5059376;28;20028;-92
2020/12/15 04:16:19;;;;;;;65.10;25.10;;;;;;;;;;5077096;28;20017;-92
2020/12/15 04:18:45;;;;;;;65.25;26.98;;;;;;;;;;5077714;28;20017;-93
2020/12/15 04:21:11;;;;;;;62.53;24.52;;;;;;;;;;5077636;28;20045;-92
2020/12/15 04:23:38;;;;;;;69.47;27.00;;;;;;;;;;5059574;28;20024;-92
2020/12/15 04:26:04;;;;;;;54.88;23.17;;;;;;;;;;5077694;28;20053;-90
2020/12/15 04:28:31;;;;;;;55.95;22.67;;;;;;;;;;5077578;28;20066;-91
2020/12/15 04:30:57;;;;;;;58.50;23.85;;;;;;;;;;5059729;28;20024;-92
2020/12/15 04:33:23;;;;;;;54.20;22.48;;;;;;;;;;5077184;28;20453;-91
2020/12/15 04:35:49;;;;;;;59.38;24.75;;;;;;;;;;5076797;28;20063;-91
2020/12/15 04:38:15;;;;;;;61.63;25.45;;;;;;;;;;5080539;28;20411;-92
2020/12/15 04:40:41;;;;;;;64.18;25.90;;;;;;;;;;5063447;28;20028;-91
2020/12/15 04:43:09;;;;;;;63.13;25.00;;;;;;;;;;5081058;28;20036;-92
2020/12/15 04:45:35;;;;;;;58.10;23.70;;;;;;;;;;5063450;28;20081;-92
2020/12/15 04:48:12;;;;;;;59.33;24.45;;;;;;;;;;5063193;28;20056;-90
2020/12/15 04:50:39;;;;;;;61.58;24.75;;;;;;;;;;5063340;28;20020;-91
2020/12/15 04:53:09;;;;;;;68.78;26.58;;;;;;;;;;5081115;28;20099;-91
2020/12/15 04:55:36;;;;;;;59.97;22.83;;;;;;;;;;5080990;28;20138;-91
2020/12/15 04:58:03;;;;;;;61.88;26.42;;;;;;;;;;5080693;28;20028;-91
2020/12/15 05:00:29;;;;;;;53.95;22.85;;;;;;;;;;5080602;28;20060;-91
2020/12/15 05:02:57;;;;;;;60.03;23.52;;;;;;;;;;5080583;28;20075;-91
2020/12/15 05:05:23;;;;;;;58.28;24.30;;;;;;;;;;5080424;28;20056;-92
2020/12/15 05:07:50;;;;;;;56.58;23.80;;;;;;;;;;5080760;28;20016;-92
2020/12/15 05:10:17;;;;;;;62.30;25.38;;;;;;;;;;5080791;28;20021;-91
2020/12/15 05:12:44;;;;;;;61.20;25.00;;;;;;;;;;5063133;28;20055;-92
2020/12/15 05:15:11;;;;;;;86.93;34.28;;;;;;;;;;5080372;28;20061;-92
2020/12/15 05:17:39;;;;;;;83.03;33.35;;;;;;;;;;5080316;28;20054;-92
2020/12/15 05:20:05;;;;;;;106.95;38.55;;;;;;;;;;5080525;28;20111;-92
2020/12/15 05:22:42;;;;;;;175.18;61.03;;;;;;;;;;5080168;28;20475;-92
2020/12/15 05:25:09;;;;;;;154.38;60.55;;;;;;;;;;5062670;28;20033;-91
2020/12/15 05:27:41;;;;;;;236.80;86.22;;;;;;;;;;5080429;28;20047;-91
2020/12/15 05:30:08;;;;;;;107.78;41.95;;;;;;;;;;5080461;28;20042;-92
2020/12/15 05:32:35;;;;;;;111.32;46.67;;;;;;;;;;5080132;28;20052;-92
2020/12/15 05:35:08;;;;;;;108.53;47.63;;;;;;;;;;5062513;28;20025;-92
2020/12/15 05:37:34;;;;;;;89.18;37.53;;;;;;;;;;5080260;28;20108;-93
2020/12/15 05:40:01;;;;;;;65.88;30.70;;;;;;;;;;5062300;28;20036;-90
2020/12/15 05:42:28;;;;;;;64.40;29.85;;;;;;;;;;5079717;28;20039;-90
2020/12/15 05:44:55;;;;;;;57.47;27.45;;;;;;;;;;5079963;28;20024;-91
2020/12/15 05:47:25;;;;;;;70.25;33.08;;;;;;;;;;5061726;28;20103;-91
2020/12/15 05:55:58;;;;;;;70.40;33.00;;;;;;;;;;5080080;28;20031;-94
2020/12/15 05:58:24;;;;;;;66.15;31.10;;;;;;;;;;5079583;28;20016;-91
2020/12/15 06:00:50;;;;;;;201.68;68.10;;;;;;;;;;5079780;28;20399;-92
2020/12/15 06:03:17;;;;;;;220.15;73.70;;;;;;;;;;5079491;28;20016;-91
2020/12/15 06:05:43;;;;;;;286.42;90.65;;;;;;;;;;5079625;28;20033;-90
2020/12/15 06:08:09;;;;;;;124.10;46.80;;;;;;;;;;5079681;28;20025;-90
2020/12/15 06:10:35;;;;;;;235.35;89.50;;;;;;;;;;5079553;28;20025;-91
2020/12/15 06:13:02;;;;;;;153.98;74.93;;;;;;;;;;5078999;28;20096;-92
2020/12/15 06:15:28;;;;;;;131.10;64.90;;;;;;;;;;5079108;28;20028;-91
2020/12/15 06:17:56;;;;;;;134.32;62.35;;;;;;;;;;5079322;28;20335;-92
2020/12/15 06:20:23;;;;;;;101.90;47.53;;;;;;;;;;5079015;28;20020;-91
2020/12/15 06:22:52;;;;;;;114.45;52.22;;;;;;;;;;5079020;28;20032;-91
2020/12/15 06:25:29;;;;;;;146.90;65.60;;;;;;;;;;5079146;28;20071;-92
2020/12/15 06:28:08;;;;;;;94.25;44.55;;;;;;;;;;5079189;28;20040;-90
2020/12/15 06:30:41;;;;;;;60.75;30.35;;;;;;;;;;5079255;28;20017;-92
2020/12/15 06:33:08;;;;;;;85.93;40.55;;;;;;;;;;5060926;28;20033;-93
2020/12/15 06:38:38;;;;;;;109.20;47.80;;;;;;;;;;5079198;28;20038;-91
2020/12/15 06:41:04;;;;;;;92.50;42.88;;;;;;;;;;5078745;28;20459;-93
2020/12/15 06:43:31;;;;;;;88.75;43.35;;;;;;;;;;5078468;28;20421;-92
2020/12/15 06:46:06;;;;;;;123.82;61.22;;;;;;;;;;5078819;28;20021;-92
2020/12/15 06:48:33;;;;;;;148.27;66.88;;;;;;;;;;5060535;28;20124;-92
2020/12/15 06:54:05;;;;;;;60.63;30.05;;;;;;;;;;5078581;28;20070;-91
2020/12/15 06:56:32;;;;;;;63.20;33.33;;;;;;;;;;5078469;28;20032;-90
2020/12/15 06:59:06;;;;;;;64.53;33.60;;;;;;;;;;5059585;28;20113;-90
2020/12/15 07:01:33;;;;;;;77.13;45.22;;;;;;;;;;5078545;28;20036;-92
2020/12/15 07:04:01;;;;;;;90.90;51.65;;;;;;;;;;5078556;28;20029;-92
2020/12/15 07:06:28;;;;;;;56.85;29.52;;;;;;;;;;5078587;28;20099;-91
2020/12/15 07:08:58;;;;;;;93.82;46.92;;;;;;;;;;5060222;28;20021;-88
2020/12/15 07:11:25;;;;;;;103.57;53.25;;;;;;;;;;5078405;28;20054;-91
2020/12/15 07:14:01;;;;;;;81.88;41.17;;;;;;;;;;5078296;28;20016;-90
2020/12/15 07:16:28;;;;;;;66.50;34.88;;;;;;;;;;5078009;28;20021;-90
2020/12/15 07:18:54;;;;;;;71.22;36.20;;;;;;;;;;5077751;28;20028;-91
2020/12/15 07:21:23;;;;;;;68.93;34.58;;;;;;;;;;5078160;28;20029;-92
2020/12/15 07:23:49;;;;;;;84.93;42.58;;;;;;;;;;5078372;28;20070;-91
2020/12/15 07:26:16;;;;;;;75.07;37.95;;;;;;;;;;5060168;28;20036;-91
2020/12/15 07:28:44;;;;;;;64.38;30.77;;;;;;;;;;5078185;28;20311;-91
2020/12/15 07:31:10;;;;;;;64.32;31.17;;;;;;;;;;5077861;28;20027;-91
2020/12/15 07:33:38;;;;;;;65.07;31.35;;;;;;;;;;5078024;28;20111;-91
2020/12/15 07:39:26;;;;;;;54.75;29.95;;;;;;;;;;5077900;28;20036;-91
2020/12/15 07:42:03;;;;;;;53.15;25.02;;;;;;;;;;5077854;28;20032;-91
2020/12/15 07:44:29;;;;;;;64.18;31.38;;;;;;;;;;5077877;28;20026;-91
2020/12/15 07:46:56;;;;;;;62.63;33.97;;;;;;;;;;5077420;28;20049;-90
2020/12/15 07:49:23;;;;;;;68.90;37.22;;;;;;;;;;5077521;28;20016;-91
2020/12/15 07:51:51;;;;;;;66.80;32.45;;;;;;;;;;5077864;28;20020;-89
2020/12/15 07:54:17;;;;;;;52.50;26.45;;;;;;;;;;5077904;28;20032;-91
2020/12/15 07:56:43;;;;;;;58.42;29.92;;;;;;;;;;5077556;28;20035;-89
2020/12/15 07:59:12;;;;;;;53.05;27.80;;;;;;;;;;5059527;28;20077;-92
2020/12/15 08:01:39;;;;;;;54.58;27.83;;;;;;;;;;5077905;28;20045;-91
2020/12/15 08:04:05;;;;;;;49.03;25.08;;;;;;;;;;5077337;28;20031;-91
2020/12/15 08:06:36;;;;;;;60.10;29.08;;;;;;;;;;5059597;28;20020;-91
2020/12/15 08:09:03;;;;;;;64.22;30.70;;;;;;;;;;5077764;28;20020;-90
2020/12/15 08:11:29;;;;;;;56.55;27.55;;;;;;;;;;5080213;28;20047;-91
2020/12/15 08:13:56;;;;;;;55.38;26.55;;;;;;;;;;5063911;28;20115;-90
2020/12/15 08:16:22;;;;;;;57.90;26.33;;;;;;;;;;5081765;28;20024;-90
2020/12/15 08:18:49;;;;;;;57.58;27.60;;;;;;;;;;5081692;28;20032;-90
2020/12/15 08:21:35;;;;;;;50.55;25.73;;;;;;;;;;5081618;28;20043;-93
2020/12/15 08:24:04;;;;;;;46.55;23.17;;;;;;;;;;5081354;28;20070;-91
2020/12/15 08:26:32;;;;;;;43.35;21.70;;;;;;;;;;5081478;28;20021;-91
2020/12/15 08:29:07;;;;;;;47.00;23.92;;;;;;;;;;5063390;28;20035;-93
2020/12/15 08:31:38;;;;;;;55.70;27.38;;;;;;;;;;5081745;28;20037;-92
2020/12/15 08:34:15;;;;;;;81.32;42.30;;;;;;;;;;5063377;28;20032;-92
2020/12/15 08:36:42;;;;;;;65.20;35.20;;;;;;;;;;5081562;28;20128;-93
2020/12/15 08:39:09;;;;;;;61.92;33.55;;;;;;;;;;5081351;28;20108;-93
2020/12/15 08:41:36;;;;;;;55.83;29.75;;;;;;;;;;5063396;28;20020;-94
2020/12/15 08:44:02;;;;;;;53.72;26.35;;;;;;;;;;5081020;28;20318;-93
2020/12/15 08:46:34;;;;;;;53.30;24.60;;;;;;;;;;5063269;28;20310;-93
2020/12/15 08:49:00;;;;;;;;;;;;;;;;;;5081587;28;20024;-93
2020/12/15 08:51:28;;;;;;;51.47;26.27;;;;;;;;;;5080800;28;19905;-89
2020/12/15 08:53:54;;;;;;;71.13;37.42;;;;;;;;;;5081265;28;20025;-91
2020/12/15 08:56:20;;;;;;;64.75;31.98;;;;;;;;;;5081044;28;20095;-90
2020/12/15 08:58:46;;;;;;;61.95;29.35;;;;;;;;;;5080653;28;20027;-90
2020/12/15 09:01:13;;;;;;;60.22;29.38;;;;;;;;;;5080565;28;20056;-90
2020/12/15 09:03:43;;;;;;;57.78;28.73;;;;;;;;;;5080719;28;20021;-92
2020/12/15 09:06:09;;;;;;;60.08;30.15;;;;;;;;;;5062418;28;20040;-93
2020/12/15 09:08:45;;;;;;;67.25;32.33;;;;;;;;;;5080356;28;20103;-91
2020/12/15 09:11:12;;;;;;;52.58;26.10;;;;;;;;;;5080305;28;20024;-91
2020/12/15 09:13:38;;;;;;;47.20;24.27;;;;;;;;;;5080304;28;20017;-89
2020/12/15 09:16:04;;;;;;;47.72;24.25;;;;;;;;;;5080410;28;20020;-91
2020/12/15 09:18:38;;;;;;;53.38;27.63;;;;;;;;;;5062585;28;20311;-91
2020/12/15 09:21:14;;;;;;;47.03;22.13;;;;;;;;;;5080491;28;20025;-83
2020/12/15 09:23:44;;;;;;;46.78;24.55;;;;;;;;;;5061840;28;20036;-88
2020/12/15 09:26:10;;;;;;;50.30;25.33;;;;;;;;;;5080373;28;20062;-89
2020/12/15 09:28:36;;;;;;;54.00;27.42;;;;;;;;;;5062207;28;20036;-90
2020/12/15 09:31:02;;;;;;;52.03;24.52;;;;;;;;;;5080056;28;20021;-90
2020/12/15 09:33:28;;;;;;;48.55;24.30;;;;;;;;;;5079975;28;20021;-89
2020/12/15 09:35:54;;;;;;;44.00;22.90;;;;;;;;;;5062378;28;20180;-89
2020/12/15 09:38:21;;;;;;;47.30;22.95;;;;;;;;;;5079994;28;20028;-89
2020/12/15 09:40:48;;;;;;;40.75;20.27;;;;;;;;;;5079798;28;20038;-89
2020/12/15 09:43:14;;;;;;;45.60;24.42;;;;;;;;;;5061484;28;20040;-89
2020/12/15 09:45:40;;;;;;;54.90;27.35;;;;;;;;;;5079620;28;20031;-89
2020/12/15 09:48:06;;;;;;;64.95;33.10;;;;;;;;;;5061537;28;20131;-89
2020/12/15 09:50:34;;;;;;;46.72;23.80;;;;;;;;;;5062117;28;20036;-89
2020/12/15 09:53:01;;;;;;;44.38;22.40;;;;;;;;;;5079581;28;20024;-88
2020/12/15 09:55:27;;;;;;;55.97;27.88;;;;;;;;;;5079332;28;20078;-88
2020/12/15 09:57:54;;;;;;;53.22;27.08;;;;;;;;;;5079382;28;20024;-88
2020/12/15 10:00:20;;;;;;;44.60;20.55;;;;;;;;;;5079805;28;20041;-88
2020/12/15 10:02:46;;;;;;;46.20;24.17;;;;;;;;;;5079758;28;20407;-88
2020/12/15 10:05:12;;;;;;;48.53;22.50;;;;;;;;;;5079412;28;20314;-88
2020/12/15 10:07:38;;;;;;;44.25;21.80;;;;;;;;;;5077857;28;20123;-88
2020/12/15 10:10:07;;;;;;;86.20;32.92;;;;;;;;;;5061734;28;20066;-88
2020/12/15 10:12:34;;;;;;;112.00;39.55;;;;;;;;;;5079235;28;20021;-88
2020/12/15 10:15:00;;;;;;;109.70;43.75;;;;;;;;;;5061551;28;20053;-89
2020/12/15 10:17:27;;;;;;;104.90;50.25;;;;;;;;;;5079270;28;20035;-89
2020/12/15 10:19:53;;;;;;;103.43;44.03;;;;;;;;;;5079099;28;20029;-89
2020/12/15 10:22:19;;;;;;;64.30;32.92;;;;;;;;;;5079346;28;20052;-89
2020/12/15 10:24:45;;;;;;;53.15;27.58;;;;;;;;;;5079256;28;20044;-88
2020/12/15 10:27:12;;;;;;;58.08;30.02;;;;;;;;;;5079080;28;20032;-89
2020/12/15 10:29:38;;;;;;;57.63;29.50;;;;;;;;;;5061582;28;20020;-88
2020/12/15 10:32:04;;;;;;;81.03;37.08;;;;;;;;;;5078973;28;20321;-89
2020/12/15 10:34:31;;;;;;;64.47;31.00;;;;;;;;;;5077758;28;20080;-90
2020/12/15 10:36:57;;;;;;;79.35;37.25;;;;;;;;;;5078512;28;20033;-90
2020/12/15 10:39:23;;;;;;;106.43;39.15;;;;;;;;;;5078643;28;20025;-89
2020/12/15 10:41:50;;;;;;;70.90;32.95;;;;;;;;;;5061307;28;20055;-88
2020/12/15 10:44:16;;;;;;;74.25;40.35;;;;;;;;;;5078529;28;20323;-89
2020/12/15 10:46:43;;;;;;;71.05;32.30;;;;;;;;;;5078644;28;20079;-88
2020/12/15 10:49:09;;;;;;;60.08;29.33;;;;;;;;;;5078474;28;20020;-88
2020/12/15 10:51:36;;;;;;;72.38;34.97;;;;;;;;;;5078249;28;20016;-86
2020/12/15 10:54:02;;;;;;;74.00;36.63;;;;;;;;;;5078204;28;20046;-88
2020/12/15 10:56:28;;;;;;;76.63;35.15;;;;;;;;;;5078159;28;20346;-89
2020/12/15 10:58:54;;;;;;;84.75;38.97;;;;;;;;;;5077947;28;20021;-89
2020/12/15 11:01:21;;;;;;;61.58;31.88;;;;;;;;;;5078186;28;20032;-89
2020/12/15 11:03:47;;;;;;;70.50;34.13;;;;;;;;;;5078327;28;20066;-88
2020/12/15 11:06:13;;;;;;;63.78;31.85;;;;;;;;;;5060155;28;20040;-88
2020/12/15 11:08:39;;;;;;;57.17;28.80;;;;;;;;;;5078214;28;20025;-89
2020/12/15 11:11:05;;;;;;;49.67;27.42;;;;;;;;;;5078027;28;20020;-89
2020/12/15 11:13:31;;;;;;;75.03;35.40;;;;;;;;;;5060054;28;20029;-88
2020/12/15 11:15:57;;;;;;;76.47;36.67;;;;;;;;;;5077934;28;20456;-88
2020/12/15 11:18:23;;;;;;;72.95;35.50;;;;;;;;;;5078328;28;20457;-89
2020/12/15 11:20:49;;;;;;;45.30;24.80;;;;;;;;;;5059941;28;20040;-88
2020/12/15 11:23:16;;;;;;;39.42;23.77;;;;;;;;;;5077937;28;20103;-86
2020/12/15 11:25:42;;;;;;;45.70;26.27;;;;;;;;;;5059848;28;20032;-86
2020/12/15 11:28:08;;;;;;;42.78;24.08;;;;;;;;;;5060052;28;20020;-86
2020/12/15 11:30:34;;;;;;;35.83;21.63;;;;;;;;;;5059664;28;20029;-87
2020/12/15 11:33:00;;;;;;;38.58;21.17;;;;;;;;;;5059630;28;20032;-86
2020/12/15 11:35:26;;;;;;;46.78;25.30;;;;;;;;;;5076963;28;20028;-87
2020/12/15 11:37:52;;;;;;;56.60;30.42;;;;;;;;;;5077676;28;20115;-86
2020/12/15 11:40:19;;;;;;;61.40;30.83;;;;;;;;;;5077341;28;20066;-85
2020/12/15 11:42:45;;;;;;;52.35;25.92;;;;;;;;;;5077460;28;20021;-89
2020/12/15 11:45:11;;;;;;;46.47;24.55;;;;;;;;;;5077001;28;20029;-90
2020/12/15 11:47:37;;;;;;;35.45;19.75;;;;;;;;;;5059839;28;20058;-90
2020/12/15 11:50:04;;;;;;;39.63;22.17;;;;;;;;;;5077888;28;20024;-89
2020/12/15 11:52:30;;;;;;;57.80;28.90;;;;;;;;;;5077524;28;20039;-90
2020/12/15 11:54:56;;;;;;;42.05;22.67;;;;;;;;;;5077463;28;20039;-89
2020/12/15 11:57:22;;;;;;;40.13;22.25;;;;;;;;;;5059554;28;20033;-91
2020/12/15 11:59:50;;;;;;;47.33;23.23;;;;;;;;;;5077359;28;20039;-90
2020/12/15 12:02:16;;;;;;;47.03;25.67;;;;;;;;;;5077683;28;20045;-90
2020/12/15 12:04:42;;;;;;;51.95;28.50;;;;;;;;;;5077503;28;20081;-89
2020/12/15 12:07:09;;;;;;;43.42;24.20;;;;;;;;;;5077493;28;20063;-89
2020/12/15 12:09:36;;;;;;;38.38;22.40;;;;;;;;;;5059810;28;20051;-88
2020/12/15 12:12:03;;;;;;;48.88;28.30;;;;;;;;;;5077477;28;20059;-89
2020/12/15 12:14:29;;;;;;;42.88;25.55;;;;;;;;;;5074938;28;20074;-89
2020/12/15 12:16:55;;;;;;;38.30;21.83;;;;;;;;;;5074296;28;20460;-88
2020/12/15 12:19:21;;;;;;;36.88;20.40;;;;;;;;;;5075240;28;20029;-89
2020/12/15 12:21:47;;;;;;;51.05;28.60;;;;;;;;;;5067214;28;20055;-90
2020/12/15 12:24:13;;;;;;;49.53;27.60;;;;;;;;;;5057506;28;20143;-92
2020/12/15 12:26:39;;;;;;;36.05;20.70;;;;;;;;;;5057191;28;20025;-89
2020/12/15 12:29:05;;;;;;;40.45;24.33;;;;;;;;;;5057204;28;20021;-89
2020/12/15 12:31:32;;;;;;;42.63;23.65;;;;;;;;;;5057361;28;20024;-91
2020/12/15 12:33:58;;;;;;;39.85;23.08;;;;;;;;;;5039973;28;20048;-89
2020/12/15 12:36:31;;;;;;;37.08;22.75;;;;;;;;;;5057271;28;20434;-90
2020/12/15 12:38:57;;;;;;;39.22;23.58;;;;;;;;;;5057587;28;20061;-89
2020/12/15 12:41:23;;;;;;;31.95;19.65;;;;;;;;;;5056954;28;20438;-91
2020/12/15 12:43:49;;;;;;;33.55;21.23;;;;;;;;;;5039402;28;20086;-90
2020/12/15 12:46:16;;;;;;;36.38;21.17;;;;;;;;;;5056863;28;20117;-91
2020/12/15 12:48:42;;;;;;;40.55;24.30;;;;;;;;;;5056999;28;20040;-91
2020/12/15 12:51:08;;;;;;;55.92;29.98;;;;;;;;;;5057103;28;20029;-90
2020/12/15 12:53:34;;;;;;;52.63;32.10;;;;;;;;;;5056866;28;20024;-90
2020/12/15 12:56:03;;;;;;;47.80;28.02;;;;;;;;;;5057133;28;20036;-90
2020/12/15 12:58:30;;;;;;;44.53;25.52;;;;;;;;;;5059308;28;20025;-91
2020/12/15 13:00:56;;;;;;;40.45;24.30;;;;;;;;;;5060826;28;20021;-90
2020/12/15 13:03:22;;;;;;;43.55;25.60;;;;;;;;;;5043011;28;20025;-90
2020/12/15 13:05:48;;;;;;;39.60;24.88;;;;;;;;;;5060484;28;20025;-90
2020/12/15 13:08:14;;;;;;;59.97;33.38;;;;;;;;;;5060580;28;20032;-89
2020/12/15 13:10:40;;;;;;;37.30;22.58;;;;;;;;;;5060465;28;20104;-90
2020/12/15 13:13:06;;;;;;;39.13;18.75;;;;;;;;;;5060327;28;20404;-89
2020/12/15 13:15:32;;;;;;;30.73;19.83;;;;;;;;;;5060604;28;20344;-91
2020/12/15 13:17:58;;;;;;;45.08;24.20;;;;;;;;;;5060565;28;20029;-92
2020/12/15 13:20:24;;;;;;;41.67;24.75;;;;;;;;;;5060658;28;20037;-92
2020/12/15 13:22:51;;;;;;;39.10;23.70;;;;;;;;;;5060184;28;20075;-90
2020/12/15 13:25:17;;;;;;;47.10;26.83;;;;;;;;;;5042568;28;20060;-88
2020/12/15 13:27:43;;;;;;;48.75;28.08;;;;;;;;;;5060138;28;20342;-91
2020/12/15 13:30:09;;;;;;;48.22;29.30;;;;;;;;;;5060286;28;20119;-90
2020/12/15 13:32:36;;;;;;;41.83;25.75;;;;;;;;;;5059980;28;20017;-89
2020/12/15 13:35:02;;;;;;;42.25;25.98;;;;;;;;;;5059879;28;20036;-89
2020/12/15 13:37:28;;;;;;;58.92;32.90;;;;;;;;;;5059847;28;20033;-90
2020/12/15 13:39:54;;;;;;;66.03;32.78;;;;;;;;;;5060099;28;20029;-89
2020/12/15 13:42:20;;;;;;;41.10;23.25;;;;;;;;;;5059842;28;20056;-91
2020/12/15 13:44:46;;;;;;;36.65;23.13;;;;;;;;;;5059405;28;20086;-90
2020/12/15 13:47:14;;;;;;;40.28;25.15;;;;;;;;;;5059265;28;20129;-90
2020/12/15 13:49:40;;;;;;;45.95;28.20;;;;;;;;;;5059298;28;20025;-90
2020/12/15 13:52:06;;;;;;;47.35;26.20;;;;;;;;;;5041487;28;20052;-91
2020/12/15 13:54:32;;;;;;;40.65;25.17;;;;;;;;;;5059868;28;20032;-90
2020/12/15 13:56:58;;;;;;;43.90;26.33;;;;;;;;;;5059343;28;20107;-90
2020/12/15 13:59:24;;;;;;;42.88;24.15;;;;;;;;;;5059443;28;20033;-92
2020/12/15 14:01:50;;;;;;;35.22;21.67;;;;;;;;;;5041804;28;20033;-90
2020/12/15 14:04:17;;;;;;;35.15;23.83;;;;;;;;;;5059510;28;20032;-90
2020/12/15 14:06:43;;;;;;;35.70;25.00;;;;;;;;;;5059351;28;20027;-92
2020/12/15 14:09:09;;;;;;;41.67;27.85;;;;;;;;;;5041290;28;20033;-90
2020/12/15 14:11:36;;;;;;;38.67;24.33;;;;;;;;;;5059672;28;20040;-92
2020/12/15 14:14:02;;;;;;;43.25;29.00;;;;;;;;;;5059007;28;20029;-91
2020/12/15 14:16:28;;;;;;;51.50;31.60;;;;;;;;;;5059127;28;20029;-90
2020/12/15 14:18:54;;;;;;;58.55;27.27;;;;;;;;;;5059474;28;20029;-90
2020/12/15 14:21:20;;;;;;;56.15;28.70;;;;;;;;;;5041128;28;20040;-88
2020/12/15 14:23:46;;;;;;;48.33;26.90;;;;;;;;;;5041395;28;20106;-90
2020/12/15 14:26:14;;;;;;;43.38;27.63;;;;;;;;;;5059106;28;20315;-90
2020/12/15 14:28:40;;;;;;;44.55;26.33;;;;;;;;;;5059251;28;20032;-90
2020/12/15 14:31:07;;;;;;;38.05;24.05;;;;;;;;;;5058784;28;20055;-91
2020/12/15 14:33:33;;;;;;;30.55;21.92;;;;;;;;;;5058986;28;20025;-89
2020/12/15 14:35:59;;;;;;;29.65;20.65;;;;;;;;;;5058822;28;20052;-90